createdAt,value
2022-10-06T00:00:07.320Z,0.00
2022-10-06T00:01:07.293Z,0.00
2022-10-06T00:02:07.242Z,0.00
2022-10-06T00:03:07.064Z,0.00
2022-10-06T00:04:06.985Z,0.00
2022-10-06T00:05:06.895Z,0.00
2022-10-06T00:06:06.805Z,0.00
2022-10-06T00:07:06.717Z,0.00
2022-10-06T00:08:09.974Z,0.00
2022-10-06T00:09:06.546Z,0.00
2022-10-06T00:10:06.466Z,0.00
2022-10-06T00:11:06.379Z,0.00
2022-10-06T00:12:06.292Z,0.00
2022-10-06T00:13:06.207Z,0.00
2022-10-06T00:14:06.123Z,0.00
2022-10-06T00:15:06.030Z,0.00
2022-10-06T00:16:05.985Z,0.00
2022-10-06T00:17:05.863Z,0.00
2022-10-06T00:18:05.788Z,0.00
2022-10-06T00:19:05.918Z,0.00
2022-10-06T00:20:05.606Z,0.00
2022-10-06T00:21:05.518Z,0.00
2022-10-06T00:22:05.439Z,0.00
2022-10-06T00:23:05.349Z,0.00
2022-10-06T00:24:05.269Z,0.00
2022-10-06T00:25:05.183Z,0.00
2022-10-06T00:26:05.099Z,0.00
2022-10-06T00:27:05.007Z,0.00
2022-10-06T00:28:04.952Z,0.00
2022-10-06T00:29:04.841Z,0.00
2022-10-06T00:30:04.755Z,0.00
2022-10-06T00:31:04.749Z,0.00
2022-10-06T00:32:04.584Z,0.00
2022-10-06T00:33:04.494Z,0.00
2022-10-06T00:34:04.413Z,0.00
2022-10-06T00:35:04.319Z,0.00
2022-10-06T00:36:04.240Z,0.00
2022-10-06T00:37:04.154Z,0.00
2022-10-06T00:38:04.065Z,0.00
2022-10-06T00:39:03.999Z,0.00
2022-10-06T00:40:03.901Z,0.00
2022-10-06T00:41:03.820Z,0.00
2022-10-06T00:42:03.736Z,0.00
2022-10-06T00:43:03.645Z,0.00
2022-10-06T00:44:03.550Z,0.00
2022-10-06T00:45:03.471Z,0.00
2022-10-06T00:46:03.409Z,0.00
2022-10-06T00:47:03.302Z,0.00
2022-10-06T00:48:03.214Z,0.00
2022-10-06T00:49:03.130Z,0.00
2022-10-06T00:50:03.062Z,0.00
2022-10-06T00:51:02.959Z,0.00
2022-10-06T00:52:02.872Z,0.00
2022-10-06T00:53:02.782Z,0.00
2022-10-06T00:54:02.702Z,0.00
2022-10-06T00:55:02.618Z,0.00
2022-10-06T00:56:02.530Z,0.00
2022-10-06T00:57:02.442Z,0.00
2022-10-06T00:58:02.363Z,0.00
2022-10-06T00:59:02.272Z,0.00
2022-10-06T01:00:02.188Z,0.00
2022-10-06T01:01:02.101Z,0.00
2022-10-06T01:02:02.022Z,0.00
2022-10-06T01:03:02.001Z,0.00
2022-10-06T01:04:01.841Z,0.00
2022-10-06T01:05:01.760Z,0.00
2022-10-06T01:06:01.669Z,0.00
2022-10-06T01:07:01.591Z,0.00
2022-10-06T01:08:01.499Z,0.00
2022-10-06T01:09:01.413Z,0.00
2022-10-06T01:10:01.327Z,0.00
2022-10-06T01:11:01.237Z,0.00
2022-10-06T01:12:01.159Z,0.00
2022-10-06T01:13:01.076Z,0.00
2022-10-06T01:14:00.989Z,0.00
2022-10-06T01:15:00.918Z,0.00
2022-10-06T01:16:00.884Z,0.00
2022-10-06T01:17:00.725Z,0.00
2022-10-06T01:18:00.647Z,0.00
2022-10-06T01:19:00.564Z,0.00
2022-10-06T01:20:00.488Z,0.00
2022-10-06T01:21:00.388Z,0.00
2022-10-06T01:22:00.305Z,0.00
2022-10-06T01:23:00.237Z,0.00
2022-10-06T01:24:00.142Z,0.00
2022-10-06T01:25:00.041Z,0.00
2022-10-06T01:25:59.961Z,0.00
2022-10-06T01:26:59.874Z,0.00
2022-10-06T01:27:59.807Z,0.00
2022-10-06T01:28:59.702Z,0.00
2022-10-06T01:29:59.612Z,0.00
2022-10-06T01:30:59.553Z,0.00
2022-10-06T01:31:59.443Z,0.00
2022-10-06T01:32:59.359Z,0.00
2022-10-06T01:33:59.273Z,0.00
2022-10-06T01:34:59.189Z,0.00
2022-10-06T01:35:59.103Z,0.00
2022-10-06T01:36:59.015Z,0.00
2022-10-06T01:37:58.935Z,0.00
2022-10-06T01:38:58.850Z,0.00
2022-10-06T01:39:58.757Z,0.00
2022-10-06T01:40:58.683Z,0.00
2022-10-06T01:41:58.594Z,0.00
2022-10-06T01:42:58.501Z,0.00
2022-10-06T01:43:58.417Z,0.00
2022-10-06T01:44:58.328Z,0.00
2022-10-06T01:45:58.351Z,0.00
2022-10-06T01:46:58.158Z,0.00
2022-10-06T01:47:58.072Z,0.00
2022-10-06T01:48:57.989Z,0.00
2022-10-06T01:49:57.902Z,0.00
2022-10-06T01:50:57.812Z,0.00
2022-10-06T01:51:57.727Z,0.00
2022-10-06T01:52:57.639Z,0.00
2022-10-06T01:53:57.553Z,0.00
2022-10-06T01:54:57.476Z,0.00
2022-10-06T01:55:57.381Z,0.00
2022-10-06T01:56:57.292Z,0.00
2022-10-06T01:57:57.214Z,0.00
2022-10-06T01:58:57.117Z,0.00
2022-10-06T01:59:57.030Z,0.00
2022-10-06T02:00:56.955Z,0.00
2022-10-06T02:01:56.891Z,0.00
2022-10-06T02:02:56.781Z,0.00
2022-10-06T02:03:56.776Z,0.00
2022-10-06T02:04:56.597Z,0.00
2022-10-06T02:05:56.537Z,0.00
2022-10-06T02:06:56.425Z,0.00
2022-10-06T02:07:56.335Z,0.00
2022-10-06T02:08:56.247Z,0.00
2022-10-06T02:09:56.157Z,0.00
2022-10-06T02:10:56.073Z,0.00
2022-10-06T02:11:55.987Z,0.00
2022-10-06T02:12:55.892Z,0.00
2022-10-06T02:13:55.824Z,0.00
2022-10-06T02:14:55.723Z,0.00
2022-10-06T02:15:55.680Z,0.00
2022-10-06T02:16:55.547Z,0.00
2022-10-06T02:17:55.454Z,0.00
2022-10-06T02:18:55.376Z,0.00
2022-10-06T02:19:55.280Z,0.00
2022-10-06T02:20:55.196Z,0.00
2022-10-06T02:21:55.111Z,0.00
2022-10-06T02:22:55.018Z,0.00
2022-10-06T02:23:54.939Z,0.00
2022-10-06T02:24:54.846Z,0.00
2022-10-06T02:25:54.759Z,0.00
2022-10-06T02:26:54.684Z,0.00
2022-10-06T02:27:54.684Z,0.00
2022-10-06T02:28:54.499Z,0.00
2022-10-06T02:29:54.410Z,0.00
2022-10-06T02:30:54.345Z,0.00
2022-10-06T02:31:54.233Z,0.00
2022-10-06T02:32:54.147Z,0.00
2022-10-06T02:33:54.053Z,0.00
2022-10-06T02:34:53.976Z,0.00
2022-10-06T02:35:53.880Z,0.00
2022-10-06T02:36:53.793Z,0.00
2022-10-06T02:37:53.703Z,0.00
2022-10-06T02:38:53.626Z,0.00
2022-10-06T02:39:53.532Z,0.00
2022-10-06T02:40:53.441Z,0.00
2022-10-06T02:41:53.354Z,0.00
2022-10-06T02:42:53.273Z,0.00
2022-10-06T02:43:53.183Z,0.00
2022-10-06T02:44:53.090Z,0.00
2022-10-06T02:45:53.003Z,0.00
2022-10-06T02:46:52.939Z,0.00
2022-10-06T02:47:52.825Z,0.00
2022-10-06T02:48:52.748Z,0.00
2022-10-06T02:49:52.651Z,0.00
2022-10-06T02:50:52.559Z,0.00
2022-10-06T02:51:52.473Z,0.00
2022-10-06T02:52:52.392Z,0.00
2022-10-06T02:53:52.302Z,0.00
2022-10-06T02:54:52.213Z,0.00
2022-10-06T02:55:52.130Z,0.00
2022-10-06T02:56:52.037Z,0.00
2022-10-06T02:57:51.953Z,0.00
2022-10-06T02:58:51.863Z,0.00
2022-10-06T02:59:51.781Z,0.00
2022-10-06T03:00:51.685Z,0.00
2022-10-06T03:01:51.706Z,0.00
2022-10-06T03:02:51.605Z,0.00
2022-10-06T03:03:51.420Z,0.00
2022-10-06T03:04:51.332Z,0.00
2022-10-06T03:05:51.247Z,0.00
2022-10-06T03:06:51.156Z,0.00
2022-10-06T03:07:51.067Z,0.00
2022-10-06T03:08:50.975Z,0.00
2022-10-06T03:09:50.894Z,0.00
2022-10-06T03:10:50.805Z,0.00
2022-10-06T03:11:50.714Z,0.00
2022-10-06T03:12:50.630Z,0.00
2022-10-06T03:13:50.545Z,0.00
2022-10-06T03:14:50.443Z,0.00
2022-10-06T03:15:50.414Z,0.00
2022-10-06T03:16:50.277Z,0.00
2022-10-06T03:17:50.199Z,0.00
2022-10-06T03:18:50.102Z,0.00
2022-10-06T03:19:50.013Z,0.00
2022-10-06T03:20:49.929Z,0.00
2022-10-06T03:21:49.849Z,0.00
2022-10-06T03:22:49.754Z,0.00
2022-10-06T03:23:49.661Z,0.00
2022-10-06T03:24:49.575Z,0.00
2022-10-06T03:25:49.485Z,0.00
2022-10-06T03:26:49.398Z,0.00
2022-10-06T03:27:49.312Z,0.00
2022-10-06T03:28:49.303Z,0.00
2022-10-06T03:29:49.134Z,0.00
2022-10-06T03:30:49.047Z,0.00
2022-10-06T03:31:49.056Z,0.00
2022-10-06T03:32:48.880Z,0.00
2022-10-06T03:33:48.780Z,0.00
2022-10-06T03:34:48.698Z,0.00
2022-10-06T03:35:48.605Z,0.00
2022-10-06T03:36:48.516Z,0.00
2022-10-06T03:37:48.431Z,0.00
2022-10-06T03:38:48.343Z,0.00
2022-10-06T03:39:48.263Z,0.00
2022-10-06T03:40:48.162Z,0.00
2022-10-06T03:41:48.076Z,0.00
2022-10-06T03:42:47.991Z,0.00
2022-10-06T03:43:47.900Z,0.00
2022-10-06T03:44:47.818Z,0.00
2022-10-06T03:45:47.723Z,0.00
2022-10-06T03:46:47.666Z,0.00
2022-10-06T03:47:47.544Z,0.00
2022-10-06T03:48:47.463Z,0.00
2022-10-06T03:49:47.373Z,0.00
2022-10-06T03:50:47.291Z,0.00
2022-10-06T03:51:47.221Z,0.00
2022-10-06T03:52:47.115Z,0.00
2022-10-06T03:53:47.022Z,0.00
2022-10-06T03:54:46.936Z,0.00
2022-10-06T03:55:46.846Z,0.00
2022-10-06T03:56:46.760Z,0.00
2022-10-06T03:57:46.676Z,0.00
2022-10-06T03:58:46.580Z,0.00
2022-10-06T03:59:46.498Z,0.00
2022-10-06T04:00:46.454Z,0.00
2022-10-06T04:01:46.430Z,0.00
2022-10-06T04:02:46.230Z,0.00
2022-10-06T04:03:46.135Z,0.00
2022-10-06T04:04:46.053Z,0.00
2022-10-06T04:05:45.965Z,0.00
2022-10-06T04:06:45.884Z,0.00
2022-10-06T04:07:45.805Z,0.00
2022-10-06T04:08:45.699Z,0.00
2022-10-06T04:09:45.611Z,0.00
2022-10-06T04:10:45.520Z,0.00
2022-10-06T04:11:45.439Z,0.00
2022-10-06T04:12:45.347Z,0.00
2022-10-06T04:13:45.266Z,0.00
2022-10-06T04:14:45.174Z,0.00
2022-10-06T04:15:45.089Z,0.00
2022-10-06T04:16:45.045Z,0.00
2022-10-06T04:17:44.909Z,0.00
2022-10-06T04:18:44.820Z,0.00
2022-10-06T04:19:44.738Z,0.00
2022-10-06T04:20:44.643Z,0.00
2022-10-06T04:21:44.560Z,0.00
2022-10-06T04:22:44.468Z,0.00
2022-10-06T04:23:44.380Z,0.00
2022-10-06T04:24:44.288Z,0.00
2022-10-06T04:25:44.202Z,0.00
2022-10-06T04:26:44.114Z,0.00
2022-10-06T04:27:44.028Z,0.00
2022-10-06T04:28:44.019Z,0.00
2022-10-06T04:29:43.852Z,0.00
2022-10-06T04:30:43.767Z,0.00
2022-10-06T04:31:43.790Z,0.00
2022-10-06T04:32:43.586Z,0.00
2022-10-06T04:33:43.501Z,0.00
2022-10-06T04:34:43.412Z,0.00
2022-10-06T04:35:43.319Z,0.00
2022-10-06T04:36:43.227Z,0.00
2022-10-06T04:37:43.150Z,0.00
2022-10-06T04:38:43.050Z,0.00
2022-10-06T04:39:42.965Z,0.00
2022-10-06T04:40:42.875Z,0.00
2022-10-06T04:41:42.813Z,0.00
2022-10-06T04:42:42.702Z,0.00
2022-10-06T04:43:42.622Z,0.00
2022-10-06T04:44:42.521Z,0.00
2022-10-06T04:45:42.460Z,0.00
2022-10-06T04:46:44.135Z,0.00
2022-10-06T04:47:42.281Z,0.00
2022-10-06T04:48:42.172Z,0.00
2022-10-06T04:49:42.085Z,0.00
2022-10-06T04:50:42.003Z,0.00
2022-10-06T04:51:41.907Z,0.00
2022-10-06T04:52:41.822Z,0.00
2022-10-06T04:53:41.739Z,0.00
2022-10-06T04:54:41.649Z,0.00
2022-10-06T04:55:41.670Z,0.00
2022-10-06T04:56:41.466Z,0.00
2022-10-06T04:57:41.378Z,0.00
2022-10-06T04:58:41.290Z,0.00
2022-10-06T04:59:41.199Z,0.00
2022-10-06T05:00:41.165Z,4.00
2022-10-06T05:01:41.023Z,4.00
2022-10-06T05:02:41.007Z,0.00
2022-10-06T05:03:40.855Z,4.00
2022-10-06T05:04:40.762Z,4.00
2022-10-06T05:05:40.671Z,4.00
2022-10-06T05:06:40.583Z,4.00
2022-10-06T05:07:40.495Z,4.00
2022-10-06T05:08:40.404Z,4.00
2022-10-06T05:09:40.315Z,8.00
2022-10-06T05:10:40.229Z,8.00
2022-10-06T05:11:40.145Z,8.00
2022-10-06T05:12:40.050Z,12.00
2022-10-06T05:13:39.972Z,16.00
2022-10-06T05:14:39.871Z,16.00
2022-10-06T05:15:39.795Z,20.00
2022-10-06T05:16:39.753Z,24.00
2022-10-06T05:17:39.612Z,28.00
2022-10-06T05:18:39.526Z,36.00
2022-10-06T05:19:39.429Z,40.00
2022-10-06T05:20:39.342Z,48.00
2022-10-06T05:21:39.256Z,52.00
2022-10-06T05:22:39.163Z,60.00
2022-10-06T05:23:39.078Z,72.00
2022-10-06T05:24:38.992Z,76.00
2022-10-06T05:25:38.901Z,88.00
2022-10-06T05:26:38.813Z,100.00
2022-10-06T05:27:38.739Z,112.00
2022-10-06T05:28:38.695Z,124.00
2022-10-06T05:29:38.538Z,136.00
2022-10-06T05:30:38.461Z,148.00
2022-10-06T05:31:38.394Z,160.00
2022-10-06T05:32:38.274Z,168.00
2022-10-06T05:33:38.198Z,172.00
2022-10-06T05:34:38.104Z,184.00
2022-10-06T05:35:38.012Z,196.00
2022-10-06T05:36:37.922Z,204.00
2022-10-06T05:37:37.829Z,220.00
2022-10-06T05:38:37.750Z,244.00
2022-10-06T05:39:37.654Z,268.00
2022-10-06T05:40:37.565Z,280.00
2022-10-06T05:41:37.486Z,284.00
2022-10-06T05:42:37.391Z,300.00
2022-10-06T05:43:37.300Z,328.00
2022-10-06T05:44:37.209Z,364.00
2022-10-06T05:45:37.173Z,384.00
2022-10-06T05:46:37.035Z,412.00
2022-10-06T05:47:36.950Z,436.00
2022-10-06T05:48:36.860Z,460.00
2022-10-06T05:49:36.770Z,476.00
2022-10-06T05:50:36.680Z,496.00
2022-10-06T05:51:36.588Z,520.00
2022-10-06T05:52:36.498Z,548.00
2022-10-06T05:53:36.414Z,572.00
2022-10-06T05:54:36.324Z,592.00
2022-10-06T05:55:36.240Z,616.00
2022-10-06T05:56:36.149Z,636.00
2022-10-06T05:57:36.062Z,660.00
2022-10-06T05:58:36.214Z,688.00
2022-10-06T05:59:35.881Z,716.00
2022-10-06T06:00:35.793Z,736.00
2022-10-06T06:01:35.774Z,764.00
2022-10-06T06:02:35.649Z,788.00
2022-10-06T06:03:35.530Z,808.00
2022-10-06T06:04:35.436Z,832.00
2022-10-06T06:05:35.342Z,848.00
2022-10-06T06:06:35.262Z,864.00
2022-10-06T06:07:35.166Z,884.00
2022-10-06T06:08:35.082Z,900.00
2022-10-06T06:09:34.998Z,908.00
2022-10-06T06:10:34.913Z,924.00
2022-10-06T06:11:34.817Z,924.00
2022-10-06T06:12:34.732Z,928.00
2022-10-06T06:13:34.643Z,944.00
2022-10-06T06:14:34.551Z,960.00
2022-10-06T06:15:34.488Z,996.00
2022-10-06T06:16:34.420Z,992.00
2022-10-06T06:17:34.294Z,960.00
2022-10-06T06:18:34.198Z,964.00
2022-10-06T06:19:34.098Z,1004.00
2022-10-06T06:20:34.017Z,1032.00
2022-10-06T06:21:33.940Z,1052.00
2022-10-06T06:22:33.841Z,1072.00
2022-10-06T06:23:33.744Z,1096.00
2022-10-06T06:24:33.668Z,1096.00
2022-10-06T08:43:58.790Z,2564.00
2022-10-06T08:44:44.817Z,1976.00
2022-10-06T08:45:44.775Z,2392.00
2022-10-06T08:46:44.671Z,2340.00
2022-10-06T08:47:44.582Z,2544.00
2022-10-06T08:48:44.495Z,2560.00
2022-10-06T08:49:44.388Z,1984.00
2022-10-06T08:50:44.290Z,2500.00
2022-10-06T08:51:44.281Z,1852.00
2022-10-06T08:52:44.106Z,2564.00
2022-10-06T08:53:44.025Z,2144.00
2022-10-06T08:54:43.935Z,2124.00
2022-10-06T08:55:43.850Z,1940.00
2022-10-06T08:56:43.761Z,2260.00
2022-10-06T08:57:43.672Z,2480.00
2022-10-06T08:58:43.593Z,2468.00
2022-10-06T08:59:43.500Z,1952.00
2022-10-06T09:00:43.432Z,2268.00
2022-10-06T09:01:43.457Z,2048.00
2022-10-06T09:02:43.276Z,2432.00
2022-10-06T09:03:43.160Z,2404.00
2022-10-06T09:04:43.061Z,1864.00
2022-10-06T09:05:42.977Z,1824.00
2022-10-06T09:06:42.885Z,1972.00
2022-10-06T09:07:42.796Z,2344.00
2022-10-06T09:08:42.704Z,1844.00
2022-10-06T09:09:42.648Z,2332.00
2022-10-06T09:10:42.532Z,1768.00
2022-10-06T09:11:42.446Z,2144.00
2022-10-06T09:12:42.388Z,2044.00
2022-10-06T09:13:42.344Z,2232.00
2022-10-06T09:14:42.179Z,2112.00
2022-10-06T09:15:42.151Z,1848.00
2022-10-06T09:16:42.046Z,2268.00
2022-10-06T09:17:41.922Z,2296.00
2022-10-06T09:19:08.281Z,2260.00
2022-10-06T09:19:41.742Z,2320.00
2022-10-06T09:20:41.681Z,2460.00
2022-10-06T09:21:41.571Z,2404.00
2022-10-06T09:22:41.506Z,2424.00
2022-10-06T09:23:41.387Z,2368.00
2022-10-06T09:24:46.265Z,2260.00
2022-10-06T09:25:41.265Z,2304.00
2022-10-06T09:26:41.141Z,2444.00
2022-10-06T09:27:41.057Z,2620.00
2022-10-06T09:28:41.049Z,2576.00
2022-10-06T09:29:40.862Z,2584.00
2022-10-06T09:30:40.786Z,2676.00
2022-10-06T09:31:40.723Z,2712.00
2022-10-06T09:32:40.634Z,2780.00
2022-10-06T09:33:40.573Z,2744.00
2022-10-06T09:34:40.436Z,2760.00
2022-10-06T09:35:40.372Z,2696.00
2022-10-06T09:36:40.328Z,2768.00
2022-10-06T09:37:40.257Z,2764.00
2022-10-06T09:38:40.105Z,2764.00
2022-10-06T09:39:40.021Z,2760.00
2022-10-06T09:40:39.907Z,2756.00
2022-10-06T09:41:39.818Z,2736.00
2022-10-06T09:42:39.774Z,2756.00
2022-10-06T09:43:39.641Z,2692.00
2022-10-06T09:44:39.555Z,2828.00
2022-10-06T09:45:39.481Z,2952.00
2022-10-06T09:46:39.381Z,2808.00
2022-10-06T09:47:39.293Z,2660.00
2022-10-06T09:48:39.207Z,2604.00
2022-10-06T09:49:39.141Z,2532.00
2022-10-06T09:50:39.045Z,2580.00
2022-10-06T09:51:38.952Z,2636.00
2022-10-06T09:52:38.859Z,2736.00
2022-10-06T09:53:38.781Z,2688.00
2022-10-06T09:54:38.690Z,2672.00
2022-10-06T09:55:38.599Z,2708.00
2022-10-06T09:56:38.518Z,2688.00
2022-10-06T09:57:38.427Z,2636.00
2022-10-06T09:58:38.342Z,2556.00
2022-10-06T09:59:40.290Z,2504.00
2022-10-06T10:00:38.241Z,2532.00
2022-10-06T10:01:38.143Z,2528.00
2022-10-06T10:02:38.083Z,2516.00
2022-10-06T10:03:38.114Z,2480.00
2022-10-06T10:04:37.829Z,2476.00
2022-10-06T10:05:37.730Z,2444.00
2022-10-06T10:06:37.647Z,2440.00
2022-10-06T10:07:37.565Z,2476.00
2022-10-06T10:08:37.517Z,2488.00
2022-10-06T10:09:37.388Z,2504.00
2022-10-06T10:10:37.294Z,2516.00
2022-10-06T10:11:37.248Z,2568.00
2022-10-06T10:12:37.121Z,2604.00
2022-10-06T10:13:37.030Z,2572.00
2022-10-06T10:14:37.048Z,2572.00
2022-10-06T10:15:36.867Z,1788.00
2022-10-06T10:16:36.952Z,2520.00
2022-10-06T10:17:36.924Z,2528.00
2022-10-06T10:18:36.598Z,2424.00
2022-10-06T10:19:36.610Z,2440.00
2022-10-06T10:20:36.429Z,2484.00
2022-10-06T10:21:36.339Z,2484.00
2022-10-06T10:22:36.296Z,2464.00
2022-10-06T10:23:36.201Z,2432.00
2022-10-06T10:24:36.144Z,2028.00
2022-10-06T10:25:36.003Z,2424.00
2022-10-06T10:26:36.026Z,2452.00
2022-10-06T10:27:36.009Z,2428.00
2022-10-06T10:28:35.795Z,2412.00
2022-10-06T10:29:35.657Z,2420.00
2022-10-06T10:30:35.556Z,2444.00
2022-10-06T10:31:35.511Z,1736.00
2022-10-06T10:32:35.406Z,2492.00
2022-10-06T10:33:35.302Z,2472.00
2022-10-06T10:34:35.245Z,2420.00
2022-10-06T10:35:35.120Z,1928.00
2022-10-06T10:36:35.069Z,1628.00
2022-10-06T10:37:35.033Z,1680.00
2022-10-06T10:38:34.904Z,2332.00
2022-10-06T10:39:34.859Z,2348.00
2022-10-06T10:40:34.695Z,2168.00
2022-10-06T10:41:34.614Z,2180.00
2022-10-06T10:42:34.571Z,2264.00
2022-10-06T10:43:34.475Z,2244.00
2022-10-06T10:44:34.348Z,2328.00
2022-10-06T10:45:34.289Z,2348.00
2022-10-06T10:46:34.267Z,2300.00
2022-10-06T10:47:34.090Z,2288.00
2022-10-06T10:48:34.036Z,2320.00
2022-10-06T10:49:33.945Z,2340.00
2022-10-06T10:50:33.831Z,2356.00
2022-10-06T10:51:33.775Z,2364.00
2022-10-06T10:52:33.651Z,2380.00
2022-10-06T10:53:34.758Z,2380.00
2022-10-06T10:54:33.488Z,2392.00
2022-10-06T10:55:33.449Z,2352.00
2022-10-06T10:56:33.304Z,2348.00
2022-10-06T10:57:33.255Z,2348.00
2022-10-06T10:58:33.143Z,2388.00
2022-10-06T10:59:33.063Z,2404.00
2022-10-06T11:00:33.017Z,2392.00
2022-10-06T11:01:32.914Z,2352.00
2022-10-06T11:02:32.791Z,2340.00
2022-10-06T11:03:32.698Z,2332.00
2022-10-06T11:04:32.613Z,2452.00
2022-10-06T11:05:32.526Z,2464.00
2022-10-06T11:06:32.488Z,2476.00
2022-10-06T11:07:32.346Z,2408.00
2022-10-06T11:08:32.297Z,2460.00
2022-10-06T11:09:32.182Z,2432.00
2022-10-06T11:10:32.134Z,2412.00
2022-10-06T11:11:32.006Z,2408.00
2022-10-06T11:12:31.918Z,2436.00
2022-10-06T11:13:31.847Z,2420.00
2022-10-06T11:14:31.763Z,2396.00
2022-10-06T11:15:31.718Z,2352.00
2022-10-06T11:16:31.676Z,2348.00
2022-10-06T11:17:31.569Z,2324.00
2022-10-06T11:18:31.428Z,2296.00
2022-10-06T11:19:31.340Z,2284.00
2022-10-06T11:20:31.238Z,1944.00
2022-10-06T11:21:31.150Z,2316.00
2022-10-06T11:22:31.061Z,2316.00
2022-10-06T11:23:30.969Z,2276.00
2022-10-06T11:24:30.891Z,2308.00
2022-10-06T11:25:34.193Z,2308.00
2022-10-06T11:26:30.714Z,2292.00
2022-10-06T11:27:30.635Z,2320.00
2022-10-06T11:28:30.730Z,2328.00
2022-10-06T11:29:30.472Z,2344.00
2022-10-06T11:30:30.422Z,2332.00
2022-10-06T11:31:30.312Z,2300.00
2022-10-06T11:32:30.192Z,2280.00
2022-10-06T11:33:30.121Z,2284.00
2022-10-06T11:34:30.023Z,2308.00
2022-10-06T11:35:29.958Z,2324.00
2022-10-06T11:36:29.869Z,2312.00
2022-10-06T11:37:29.766Z,2288.00
2022-10-06T11:38:29.724Z,2284.00
2022-10-06T11:39:29.627Z,2280.00
2022-10-06T11:40:29.515Z,2288.00
2022-10-06T11:41:29.447Z,2304.00
2022-10-06T11:43:29.260Z,2324.00
2022-10-06T11:44:29.172Z,2384.00
2022-10-06T11:45:29.163Z,2464.00
2022-10-06T11:46:31.775Z,2488.00
2022-10-06T11:47:36.333Z,2492.00
2022-10-06T11:48:28.815Z,2436.00
2022-10-06T11:49:28.749Z,2408.00
2022-10-06T11:50:28.670Z,2432.00
2022-10-06T11:51:28.611Z,2480.00
2022-10-06T11:52:28.505Z,2476.00
2022-10-06T11:53:28.396Z,2468.00
2022-10-06T11:54:28.310Z,2468.00
2022-10-06T11:55:28.225Z,2432.00
2022-10-06T11:56:28.131Z,1756.00
2022-10-06T11:57:31.233Z,2340.00
2022-10-06T11:58:42.068Z,2332.00
2022-10-06T11:59:27.876Z,2312.00
2022-10-06T12:00:27.810Z,2332.00
2022-10-06T12:01:27.724Z,2216.00
2022-10-06T12:02:27.705Z,2296.00
2022-10-06T12:03:27.560Z,2000.00
2022-10-06T12:04:27.449Z,2160.00
2022-10-06T12:06:27.271Z,1932.00
2022-10-06T12:07:27.233Z,2276.00
2022-10-06T12:08:27.112Z,2300.00
2022-10-06T12:09:27.050Z,1960.00
2022-10-06T12:10:26.936Z,1592.00
2022-10-06T12:11:26.851Z,1608.00
2022-10-06T12:12:26.780Z,2284.00
2022-10-06T12:14:23.647Z,2348.00
2022-10-06T12:16:00.063Z,2336.00
2022-10-06T12:17:26.351Z,2312.00
2022-10-06T12:18:26.249Z,1580.00
2022-10-06T12:19:26.180Z,1712.00
2022-10-06T12:20:26.085Z,2328.00
2022-10-06T12:21:25.987Z,1672.00
2022-10-06T12:22:25.946Z,2288.00
2022-10-06T12:23:25.832Z,2272.00
2022-10-06T12:24:25.732Z,1556.00
2022-10-06T12:25:25.663Z,1628.00
2022-10-06T12:26:34.310Z,1700.00
2022-10-06T12:28:29.932Z,1716.00
2022-10-06T12:29:29.771Z,1788.00
2022-10-06T12:30:29.782Z,1840.00
2022-10-06T12:31:29.648Z,1588.00
2022-10-06T12:32:29.512Z,1596.00
2022-10-06T12:33:29.423Z,1600.00
2022-10-06T12:34:29.335Z,2336.00
2022-10-06T12:35:29.253Z,2324.00
2022-10-06T12:36:29.166Z,2332.00
2022-10-06T12:37:29.082Z,2348.00
2022-10-06T12:38:28.993Z,2340.00
2022-10-06T12:39:28.916Z,2356.00
2022-10-06T12:40:28.820Z,2352.00
2022-10-06T12:41:28.749Z,2332.00
2022-10-06T12:42:28.654Z,2340.00
2022-10-06T12:43:28.564Z,2256.00
2022-10-06T12:44:28.478Z,2428.00
2022-10-06T12:45:28.398Z,2320.00
2022-10-06T12:46:28.406Z,2344.00
2022-10-06T12:47:28.225Z,2356.00
2022-10-06T12:48:28.142Z,2352.00
2022-10-06T12:49:28.051Z,2376.00
2022-10-06T12:50:27.965Z,2400.00
2022-10-06T12:51:27.904Z,2408.00
2022-10-06T12:52:27.794Z,2400.00
2022-10-06T12:53:27.712Z,2364.00
2022-10-06T12:54:27.624Z,2412.00
2022-10-06T12:55:27.540Z,2444.00
2022-10-06T12:56:27.460Z,2420.00
2022-10-06T12:57:27.370Z,2460.00
2022-10-06T12:58:27.283Z,2456.00
2022-10-06T12:59:27.200Z,2448.00
2022-10-06T13:00:27.137Z,2464.00
2022-10-06T13:01:27.059Z,2352.00
2022-10-06T13:02:26.987Z,2496.00
2022-10-06T13:03:26.861Z,2628.00
2022-10-06T13:04:26.767Z,2488.00
2022-10-06T13:05:26.690Z,2512.00
2022-10-06T13:06:26.599Z,2524.00
2022-10-06T13:07:26.518Z,2512.00
2022-10-06T13:08:26.432Z,2516.00
2022-10-06T13:09:26.343Z,2496.00
2022-10-06T13:10:26.259Z,2516.00
2022-10-06T13:11:26.173Z,2528.00
2022-10-06T13:12:26.098Z,2604.00
2022-10-06T13:13:26.009Z,2564.00
2022-10-06T13:14:25.918Z,2576.00
2022-10-06T13:15:25.889Z,2628.00
2022-10-06T13:16:25.780Z,2608.00
2022-10-06T13:17:25.663Z,2640.00
2022-10-06T13:18:25.581Z,2576.00
2022-10-06T13:19:25.492Z,2560.00
2022-10-06T13:20:25.409Z,2580.00
2022-10-06T13:21:25.326Z,2584.00
2022-10-06T13:22:25.238Z,2604.00
2022-10-06T13:23:25.152Z,2604.00
2022-10-06T13:24:25.066Z,2628.00
2022-10-06T13:25:24.980Z,2644.00
2022-10-06T13:26:24.897Z,2660.00
2022-10-06T13:27:24.812Z,2652.00
2022-10-06T13:28:24.765Z,2780.00
2022-10-06T13:29:24.641Z,2632.00
2022-10-06T13:30:24.553Z,2676.00
2022-10-06T13:31:24.465Z,2696.00
2022-10-06T13:32:24.386Z,2684.00
2022-10-06T13:33:24.301Z,2656.00
2022-10-06T13:34:24.210Z,2672.00
2022-10-06T13:35:24.130Z,2660.00
2022-10-06T13:36:24.050Z,2708.00
2022-10-06T13:37:23.982Z,2656.00
2022-10-06T13:38:23.874Z,2712.00
2022-10-06T13:39:23.792Z,2688.00
2022-10-06T13:40:43.589Z,2676.00
2022-10-06T13:41:23.622Z,2684.00
2022-10-06T13:42:23.539Z,2676.00
2022-10-06T13:43:23.453Z,2688.00
2022-10-06T13:44:23.363Z,2688.00
2022-10-06T13:45:23.281Z,2668.00
2022-10-06T13:46:23.267Z,2720.00
2022-10-06T13:47:23.113Z,2680.00
2022-10-06T13:48:23.028Z,2696.00
2022-10-06T13:49:22.944Z,2700.00
2022-10-06T13:50:22.856Z,2732.00
2022-10-06T13:51:22.780Z,2732.00
2022-10-06T13:52:22.690Z,2704.00
2022-10-06T13:53:22.601Z,2720.00
2022-10-06T13:54:22.531Z,2732.00
2022-10-06T13:55:22.440Z,2716.00
2022-10-06T13:56:22.381Z,2732.00
2022-10-06T13:57:22.263Z,2724.00
2022-10-06T13:58:22.180Z,2748.00
2022-10-06T13:59:22.096Z,2720.00
2022-10-06T14:00:22.016Z,2744.00
2022-10-06T14:01:21.961Z,2764.00
2022-10-06T14:02:21.921Z,2780.00
2022-10-06T14:03:21.809Z,2744.00
2022-10-06T14:04:21.685Z,2744.00
2022-10-06T14:05:21.590Z,2756.00
2022-10-06T14:06:21.505Z,2756.00
2022-10-06T14:07:21.421Z,2736.00
2022-10-06T14:08:21.333Z,2784.00
2022-10-06T14:09:21.251Z,2820.00
2022-10-06T14:10:21.199Z,2824.00
2022-10-06T14:11:21.083Z,2800.00
2022-10-06T14:12:20.990Z,2812.00
2022-10-06T14:13:20.915Z,2824.00
2022-10-06T14:14:20.821Z,2836.00
2022-10-06T14:15:20.740Z,2816.00
2022-10-06T14:16:20.706Z,2836.00
2022-10-06T14:17:20.575Z,2844.00
2022-10-06T14:18:20.558Z,2888.00
2022-10-06T14:19:20.402Z,2860.00
2022-10-06T14:20:20.318Z,2872.00
2022-10-06T14:21:20.229Z,2884.00
2022-10-06T14:22:20.149Z,2904.00
2022-10-06T14:23:20.062Z,2928.00
2022-10-06T14:24:19.978Z,2908.00
2022-10-06T14:25:19.894Z,2932.00
2022-10-06T14:26:19.811Z,2932.00
2022-10-06T14:27:19.726Z,2944.00
2022-10-06T14:28:19.722Z,2912.00
2022-10-06T14:29:19.560Z,2952.00
2022-10-06T14:30:19.473Z,2964.00
2022-10-06T14:31:19.430Z,2928.00
2022-10-06T14:32:19.297Z,2988.00
2022-10-06T14:33:19.217Z,3024.00
2022-10-06T14:34:19.138Z,3060.00
2022-10-06T14:35:19.048Z,3104.00
2022-10-06T14:36:18.966Z,3156.00
2022-10-06T14:37:18.874Z,3224.00
2022-10-06T14:38:18.794Z,3308.00
2022-10-06T14:39:18.702Z,3408.00
2022-10-06T14:40:18.619Z,3512.00
2022-10-06T14:41:19.201Z,3608.00
2022-10-06T14:42:18.457Z,3720.00
2022-10-06T14:43:18.372Z,3848.00
2022-10-06T14:44:18.283Z,3944.00
2022-10-06T14:45:18.196Z,4096.00
2022-10-06T14:46:18.158Z,4204.00
2022-10-06T14:47:18.036Z,4300.00
2022-10-06T14:48:17.947Z,4396.00
2022-10-06T14:49:17.867Z,4500.00
2022-10-06T14:50:17.780Z,4616.00
2022-10-06T14:51:17.699Z,4736.00
2022-10-06T14:52:17.613Z,4860.00
2022-10-06T14:53:17.529Z,4924.00
2022-10-06T14:54:17.449Z,5024.00
2022-10-06T14:55:17.371Z,5180.00
2022-10-06T14:56:17.275Z,5356.00
2022-10-06T14:57:17.190Z,5512.00
2022-10-06T14:58:17.112Z,5728.00